sensor_id;sensor_type;location;lat;lon;timestamp;pressure;altitude;pressure_sealevel;temperature;humidity
15267;BME280;7735;49.144;8.668;2023-07-09T00:00:16;100406.75;;;25.60;48.03
15267;BME280;7735;49.144;8.668;2023-07-09T00:02:44;100405.47;;;25.53;48.21
15267;BME280;7735;49.144;8.668;2023-07-09T00:05:14;100406.59;;;25.49;48.42
15267;BME280;7735;49.144;8.668;2023-07-09T00:07:42;100409.28;;;25.49;48.57
15267;BME280;7735;49.144;8.668;2023-07-09T00:10:15;100418.00;;;25.51;48.43
15267;BME280;7735;49.144;8.668;2023-07-09T00:12:42;100409.28;;;25.49;48.53
15267;BME280;7735;49.144;8.668;2023-07-09T00:15:10;100412.91;;;25.48;48.60
15267;BME280;7735;49.144;8.668;2023-07-09T00:17:37;100409.28;;;25.49;48.51
15267;BME280;7735;49.144;8.668;2023-07-09T00:20:07;100414.59;;;25.49;48.78
15267;BME280;7735;49.144;8.668;2023-07-09T00:22:40;100418.44;;;25.45;48.83
15267;BME280;7735;49.144;8.668;2023-07-09T00:25:10;100425.75;;;25.41;49.05
15267;BME280;7735;49.144;8.668;2023-07-09T00:27:39;100418.81;;;25.39;48.82
15267;BME280;7735;49.144;8.668;2023-07-09T00:30:13;100421.59;;;25.37;49.15
15267;BME280;7735;49.144;8.668;2023-07-09T00:32:41;100421.78;;;25.34;49.01
15267;BME280;7735;49.144;8.668;2023-07-09T00:35:09;100417.59;;;25.30;49.28
15267;BME280;7735;49.144;8.668;2023-07-09T00:37:37;100429.34;;;25.28;49.49
15267;BME280;7735;49.144;8.668;2023-07-09T00:40:10;100432.06;;;25.26;49.37
15267;BME280;7735;49.144;8.668;2023-07-09T00:42:43;100432.28;;;25.23;49.41
15267;BME280;7735;49.144;8.668;2023-07-09T00:45:17;100424.50;;;25.20;49.46
15267;BME280;7735;49.144;8.668;2023-07-09T00:47:48;100425.53;;;25.18;49.50
15267;BME280;7735;49.144;8.668;2023-07-09T00:50:27;100425.72;;;25.14;49.80
15267;BME280;7735;49.144;8.668;2023-07-09T00:52:59;100421.47;;;25.12;49.86
15267;BME280;7735;49.144;8.668;2023-07-09T00:55:31;100422.59;;;25.08;50.12
15267;BME280;7735;49.144;8.668;2023-07-09T00:58:02;100419.38;;;25.03;49.98
15267;BME280;7735;49.144;8.668;2023-07-09T01:00:32;100424.78;;;25.01;49.93
15267;BME280;7735;49.144;8.668;2023-07-09T01:03:07;100435.50;;;25.00;50.31
15267;BME280;7735;49.144;8.668;2023-07-09T01:05:37;100432.94;;;24.98;50.00
15267;BME280;7735;49.144;8.668;2023-07-09T01:08:05;100434.75;;;24.98;50.32
15267;BME280;7735;49.144;8.668;2023-07-09T01:10:36;100441.13;;;24.95;50.12
15267;BME280;7735;49.144;8.668;2023-07-09T01:13:05;100436.88;;;24.93;50.38
15267;BME280;7735;49.144;8.668;2023-07-09T01:15:34;100438.75;;;24.91;50.31
15267;BME280;7735;49.144;8.668;2023-07-09T01:18:03;100436.19;;;24.89;50.31
15267;BME280;7735;49.144;8.668;2023-07-09T01:20:29;100439.81;;;24.88;50.33
15267;BME280;7735;49.144;8.668;2023-07-09T01:22:58;100440.00;;;24.85;50.58
15267;BME280;7735;49.144;8.668;2023-07-09T01:25:26;100442.78;;;24.83;50.35
15267;BME280;7735;49.144;8.668;2023-07-09T01:27:55;100450.84;;;24.82;50.14
15267;BME280;7735;49.144;8.668;2023-07-09T01:30:23;100442.09;;;24.80;50.48
15267;BME280;7735;49.144;8.668;2023-07-09T01:32:50;100441.34;;;24.78;50.43
15267;BME280;7735;49.144;8.668;2023-07-09T01:35:19;100451.25;;;24.76;50.59
15267;BME280;7735;49.144;8.668;2023-07-09T01:37:47;100446.00;;;24.74;50.30
15267;BME280;7735;49.144;8.668;2023-07-09T01:40:17;100454.06;;;24.73;50.40
15267;BME280;7735;49.144;8.668;2023-07-09T01:42:44;100448.00;;;24.71;50.80
15267;BME280;7735;49.144;8.668;2023-07-09T01:45:12;100448.00;;;24.71;50.95
15267;BME280;7735;49.144;8.668;2023-07-09T01:47:39;100439.25;;;24.69;50.85
15267;BME280;7735;49.144;8.668;2023-07-09T01:50:07;100442.75;;;24.69;50.94
15267;BME280;7735;49.144;8.668;2023-07-09T01:52:36;100431.34;;;24.67;50.76
15267;BME280;7735;49.144;8.668;2023-07-09T01:55:05;100436.00;;;24.64;50.74
15267;BME280;7735;49.144;8.668;2023-07-09T01:57:33;100436.38;;;24.57;50.98
15267;BME280;7735;49.144;8.668;2023-07-09T02:00:01;100438.47;;;24.52;50.79
15267;BME280;7735;49.144;8.668;2023-07-09T02:02:30;100440.38;;;24.50;51.33
15267;BME280;7735;49.144;8.668;2023-07-09T02:04:58;100440.38;;;24.50;51.08
15267;BME280;7735;49.144;8.668;2023-07-09T02:07:26;100439.63;;;24.48;51.51
15267;BME280;7735;49.144;8.668;2023-07-09T02:09:52;100432.66;;;24.46;51.11
15267;BME280;7735;49.144;8.668;2023-07-09T02:12:19;100438.81;;;24.46;51.50
15267;BME280;7735;49.144;8.668;2023-07-09T02:14:48;100435.41;;;24.44;51.24
15267;BME280;7735;49.144;8.668;2023-07-09T02:17:15;100439.13;;;24.42;51.31
15267;BME280;7735;49.144;8.668;2023-07-09T02:19:42;100435.69;;;24.40;51.37
15267;BME280;7735;49.144;8.668;2023-07-09T02:22:10;100442.91;;;24.38;51.36
15267;BME280;7735;49.144;8.668;2023-07-09T02:24:37;100440.44;;;24.35;51.65
15267;BME280;7735;49.144;8.668;2023-07-09T02:27:06;100438.81;;;24.32;51.43
15267;BME280;7735;49.144;8.668;2023-07-09T02:29:34;100427.38;;;24.30;51.62
15267;BME280;7735;49.144;8.668;2023-07-09T02:32:02;100423.94;;;24.28;51.86
15267;BME280;7735;49.144;8.668;2023-07-09T02:34:30;100432.13;;;24.25;51.47
15267;BME280;7735;49.144;8.668;2023-07-09T02:36:58;100427.75;;;24.24;51.66
15267;BME280;7735;49.144;8.668;2023-07-09T02:39:25;100432.31;;;24.22;51.79
15267;BME280;7735;49.144;8.668;2023-07-09T02:41:52;100426.13;;;24.21;51.73
15267;BME280;7735;49.144;8.668;2023-07-09T02:44:19;100435.13;;;24.19;51.83
15267;BME280;7735;49.144;8.668;2023-07-09T02:46:46;100433.41;;;24.18;51.99
15267;BME280;7735;49.144;8.668;2023-07-09T02:49:15;100426.38;;;24.17;52.18
15267;BME280;7735;49.144;8.668;2023-07-09T02:51:42;100432.66;;;24.16;52.02
15267;BME280;7735;49.144;8.668;2023-07-09T02:54:08;100440.66;;;24.16;51.90
15267;BME280;7735;49.144;8.668;2023-07-09T02:56:35;100432.84;;;24.13;51.87
15267;BME280;7735;49.144;8.668;2023-07-09T02:59:02;100441.00;;;24.10;51.79
15267;BME280;7735;49.144;8.668;2023-07-09T03:01:29;100440.16;;;24.09;51.85
15267;BME280;7735;49.144;8.668;2023-07-09T03:03:57;100441.19;;;24.07;51.84
15267;BME280;7735;49.144;8.668;2023-07-09T03:06:27;100438.63;;;24.05;52.19
15267;BME280;7735;49.144;8.668;2023-07-09T03:08:53;100436.97;;;24.02;52.05
15267;BME280;7735;49.144;8.668;2023-07-09T03:11:20;100448.56;;;24.01;52.15
15267;BME280;7735;49.144;8.668;2023-07-09T03:13:47;100447.06;;;23.97;52.00
15267;BME280;7735;49.144;8.668;2023-07-09T03:16:14;100440.03;;;23.96;52.29
15267;BME280;7735;49.144;8.668;2023-07-09T03:18:41;100444.50;;;23.96;52.39
15267;BME280;7735;49.144;8.668;2023-07-09T03:21:08;100451.63;;;23.95;52.19
15267;BME280;7735;49.144;8.668;2023-07-09T03:23:36;100460.44;;;23.96;52.38
15267;BME280;7735;49.144;8.668;2023-07-09T03:26:03;100459.59;;;23.95;52.42
15267;BME280;7735;49.144;8.668;2023-07-09T03:28:30;100470.22;;;23.95;52.18
15267;BME280;7735;49.144;8.668;2023-07-09T03:30:58;100467.63;;;23.94;52.36
15267;BME280;7735;49.144;8.668;2023-07-09T03:33:24;100476.50;;;23.94;52.27
15267;BME280;7735;49.144;8.668;2023-07-09T03:35:51;100473.06;;;23.92;52.14
15267;BME280;7735;49.144;8.668;2023-07-09T03:38:18;100475.03;;;23.89;52.07
15267;BME280;7735;49.144;8.668;2023-07-09T03:40:50;100476.94;;;23.87;52.39
15267;BME280;7735;49.144;8.668;2023-07-09T03:43:16;100475.38;;;23.83;52.32
15267;BME280;7735;49.144;8.668;2023-07-09T03:45:44;100485.44;;;23.78;52.39
15267;BME280;7735;49.144;8.668;2023-07-09T03:48:11;100489.97;;;23.76;52.48
15267;BME280;7735;49.144;8.668;2023-07-09T03:50:37;100486.56;;;23.73;52.35
15267;BME280;7735;49.144;8.668;2023-07-09T03:53:04;100485.88;;;23.70;52.53
15267;BME280;7735;49.144;8.668;2023-07-09T03:55:31;100484.16;;;23.69;52.78
15267;BME280;7735;49.144;8.668;2023-07-09T03:58:00;100479.81;;;23.68;52.73
15267;BME280;7735;49.144;8.668;2023-07-09T04:00:28;100484.22;;;23.67;52.68
15267;BME280;7735;49.144;8.668;2023-07-09T04:02:55;100488.78;;;23.65;52.62
15267;BME280;7735;49.144;8.668;2023-07-09T04:05:22;100484.41;;;23.64;52.64
15267;BME280;7735;49.144;8.668;2023-07-09T04:07:48;100490.59;;;23.65;52.86
15267;BME280;7735;49.144;8.668;2023-07-09T04:10:16;100490.78;;;23.62;52.58
15267;BME280;7735;49.144;8.668;2023-07-09T04:12:43;100493.53;;;23.59;52.68
15267;BME280;7735;49.144;8.668;2023-07-09T04:15:12;100497.16;;;23.58;52.91
15267;BME280;7735;49.144;8.668;2023-07-09T04:17:39;100496.38;;;23.56;52.87
15267;BME280;7735;49.144;8.668;2023-07-09T04:20:07;100501.63;;;23.57;52.84
15267;BME280;7735;49.144;8.668;2023-07-09T04:22:35;100501.78;;;23.54;52.97
15267;BME280;7735;49.144;8.668;2023-07-09T04:25:02;100501.72;;;23.56;53.27
15267;BME280;7735;49.144;8.668;2023-07-09T04:27:29;100502.47;;;23.58;53.13
15267;BME280;7735;49.144;8.668;2023-07-09T04:29:56;100501.53;;;23.59;53.14
15267;BME280;7735;49.144;8.668;2023-07-09T04:32:24;100504.06;;;23.62;53.03
15267;BME280;7735;49.144;8.668;2023-07-09T04:34:51;100503.13;;;23.63;52.81
15267;BME280;7735;49.144;8.668;2023-07-09T04:37:18;100500.47;;;23.63;52.81
15267;BME280;7735;49.144;8.668;2023-07-09T04:39:45;100500.47;;;23.63;53.07
15267;BME280;7735;49.144;8.668;2023-07-09T04:42:14;100512.81;;;23.64;52.80
15267;BME280;7735;49.144;8.668;2023-07-09T04:44:43;100501.31;;;23.63;53.11
15267;BME280;7735;49.144;8.668;2023-07-09T04:47:09;100505.78;;;23.63;52.97
15267;BME280;7735;49.144;8.668;2023-07-09T04:49:39;100504.81;;;23.64;52.79
15267;BME280;7735;49.144;8.668;2023-07-09T04:52:06;100503.88;;;23.65;53.10
15267;BME280;7735;49.144;8.668;2023-07-09T04:54:37;100505.59;;;23.66;53.11
15267;BME280;7735;49.144;8.668;2023-07-09T04:57:04;100507.41;;;23.65;52.92
15267;BME280;7735;49.144;8.668;2023-07-09T04:59:31;100506.53;;;23.65;53.19
15267;BME280;7735;49.144;8.668;2023-07-09T05:01:58;100505.59;;;23.66;53.29
15267;BME280;7735;49.144;8.668;2023-07-09T05:04:25;100507.31;;;23.67;53.32
15267;BME280;7735;49.144;8.668;2023-07-09T05:06:53;100513.41;;;23.69;53.16
15267;BME280;7735;49.144;8.668;2023-07-09T05:09:20;100515.91;;;23.72;53.19
15267;BME280;7735;49.144;8.668;2023-07-09T05:11:49;100519.31;;;23.74;53.21
15267;BME280;7735;49.144;8.668;2023-07-09T05:14:15;100523.53;;;23.78;53.40
15267;BME280;7735;49.144;8.668;2023-07-09T05:16:43;100520.88;;;23.78;53.16
15267;BME280;7735;49.144;8.668;2023-07-09T05:19:09;100520.69;;;23.81;53.21
15267;BME280;7735;49.144;8.668;2023-07-09T05:21:42;100520.50;;;23.84;53.45
15267;BME280;7735;49.144;8.668;2023-07-09T05:24:10;100519.41;;;23.88;53.08
15267;BME280;7735;49.144;8.668;2023-07-09T05:26:37;100522.81;;;23.90;53.40
15267;BME280;7735;49.144;8.668;2023-07-09T05:29:07;100516.41;;;23.94;53.32
15267;BME280;7735;49.144;8.668;2023-07-09T05:31:33;100513.56;;;23.97;53.14
15267;BME280;7735;49.144;8.668;2023-07-09T05:34:01;100516.03;;;24.00;53.52
15267;BME280;7735;49.144;8.668;2023-07-09T05:36:28;100528.22;;;24.05;53.54
15267;BME280;7735;49.144;8.668;2023-07-09T05:38:55;100532.41;;;24.09;53.68
15267;BME280;7735;49.144;8.668;2023-07-09T05:41:24;100531.47;;;24.10;53.57
15267;BME280;7735;49.144;8.668;2023-07-09T05:43:51;100524.25;;;24.12;53.66
15267;BME280;7735;49.144;8.668;2023-07-09T05:46:18;100522.19;;;24.17;53.57
15267;BME280;7735;49.144;8.668;2023-07-09T05:48:45;100522.84;;;24.20;53.41
15267;BME280;7735;49.144;8.668;2023-07-09T05:51:12;100524.41;;;24.24;53.55
15267;BME280;7735;49.144;8.668;2023-07-09T05:53:39;100522.34;;;24.29;53.42
15267;BME280;7735;49.144;8.668;2023-07-09T05:56:06;100521.25;;;24.34;53.10
15267;BME280;7735;49.144;8.668;2023-07-09T05:58:34;100529.88;;;24.37;53.04
15267;BME280;7735;49.144;8.668;2023-07-09T06:01:01;100526.22;;;24.40;52.87
15267;BME280;7735;49.144;8.668;2023-07-09T06:03:28;100529.53;;;24.43;52.61
15267;BME280;7735;49.144;8.668;2023-07-09T06:05:56;100520.50;;;24.46;52.42
15267;BME280;7735;49.144;8.668;2023-07-09T06:08:25;100520.25;;;24.50;52.62
15267;BME280;7735;49.144;8.668;2023-07-09T06:10:58;100529.69;;;24.56;52.21
15267;BME280;7735;49.144;8.668;2023-07-09T06:23:53;100526.66;;;24.76;51.66
15267;BME280;7735;49.144;8.668;2023-07-09T06:26:20;100535.22;;;24.81;51.50
15267;BME280;7735;49.144;8.668;2023-07-09T06:28:46;100532.28;;;24.86;50.92
15267;BME280;7735;49.144;8.668;2023-07-09T06:31:13;100530.97;;;24.93;50.94
15267;BME280;7735;49.144;8.668;2023-07-09T06:33:40;100529.66;;;25.00;50.79
15267;BME280;7735;49.144;8.668;2023-07-09T06:36:08;100531.09;;;25.06;50.54
15267;BME280;7735;49.144;8.668;2023-07-09T06:38:35;100525.84;;;25.33;50.64
15267;BME280;7735;49.144;8.668;2023-07-09T06:41:04;100532.59;;;25.53;49.88
15267;BME280;7735;49.144;8.668;2023-07-09T06:43:30;100535.19;;;25.54;50.03
15267;BME280;7735;49.144;8.668;2023-07-09T06:45:59;100539.56;;;25.55;49.78
15267;BME280;7735;49.144;8.668;2023-07-09T06:48:27;100537.63;;;25.57;49.89
15267;BME280;7735;49.144;8.668;2023-07-09T06:50:56;100527.72;;;25.59;49.71
15267;BME280;7735;49.144;8.668;2023-07-09T06:53:23;100529.25;;;25.63;49.86
15267;BME280;7735;49.144;8.668;2023-07-09T06:55:50;100536.09;;;25.67;49.80
15267;BME280;7735;49.144;8.668;2023-07-09T06:58:21;100542.03;;;25.73;50.07
15267;BME280;7735;49.144;8.668;2023-07-09T07:00:51;100537.44;;;25.75;49.55
15267;BME280;7735;49.144;8.668;2023-07-09T07:03:18;100537.22;;;25.78;49.89
15267;BME280;7735;49.144;8.668;2023-07-09T07:05:45;100537.06;;;25.81;49.87
15267;BME280;7735;49.144;8.668;2023-07-09T07:08:15;100539.53;;;25.84;49.78
15267;BME280;7735;49.144;8.668;2023-07-09T07:10:43;100535.78;;;25.86;50.11
15267;BME280;7735;49.144;8.668;2023-07-09T07:13:10;100519.66;;;25.88;50.06
15267;BME280;7735;49.144;8.668;2023-07-09T07:15:39;100514.25;;;25.89;50.41
15267;BME280;7735;49.144;8.668;2023-07-09T07:18:06;100511.28;;;25.94;50.34
15267;BME280;7735;49.144;8.668;2023-07-09T07:20:33;100505.53;;;26.00;49.98
15267;BME280;7735;49.144;8.668;2023-07-09T07:23:00;100510.66;;;26.03;50.29
15267;BME280;7735;49.144;8.668;2023-07-09T07:25:27;100508.75;;;26.05;50.37
15267;BME280;7735;49.144;8.668;2023-07-09T07:27:55;100508.75;;;26.05;50.42
15267;BME280;7735;49.144;8.668;2023-07-09T07:30:22;100506.63;;;26.10;50.51
15267;BME280;7735;49.144;8.668;2023-07-09T07:32:50;100510.91;;;26.13;50.39
15267;BME280;7735;49.144;8.668;2023-07-09T07:35:17;100513.28;;;26.17;49.86
15267;BME280;7735;49.144;8.668;2023-07-09T07:37:44;100513.06;;;26.20;49.56
15267;BME280;7735;49.144;8.668;2023-07-09T07:40:11;100510.97;;;26.25;49.36
15267;BME280;7735;49.144;8.668;2023-07-09T07:42:38;100512.44;;;26.30;49.50
15267;BME280;7735;49.144;8.668;2023-07-09T07:45:05;100512.22;;;26.33;49.40
15267;BME280;7735;49.144;8.668;2023-07-09T07:47:33;100515.50;;;26.38;49.03
15267;BME280;7735;49.144;8.668;2023-07-09T07:50:02;100508.22;;;26.40;49.10
15267;BME280;7735;49.144;8.668;2023-07-09T07:52:29;100501.84;;;26.42;48.95
15267;BME280;7735;49.144;8.668;2023-07-09T07:54:57;100499.69;;;26.47;48.68
15267;BME280;7735;49.144;8.668;2023-07-09T07:57:24;100506.56;;;26.51;48.52
15267;BME280;7735;49.144;8.668;2023-07-09T07:59:52;100503.56;;;26.56;48.49
15267;BME280;7735;49.144;8.668;2023-07-09T08:02:19;100500.66;;;26.59;48.42
15267;BME280;7735;49.144;8.668;2023-07-09T08:04:46;100504.97;;;26.62;48.02
15267;BME280;7735;49.144;8.668;2023-07-09T08:07:14;100502.72;;;26.68;47.89
15267;BME280;7735;49.144;8.668;2023-07-09T08:09:42;100499.84;;;26.71;47.76
15267;BME280;7735;49.144;8.668;2023-07-09T08:12:09;100495.00;;;26.76;47.69
15267;BME280;7735;49.144;8.668;2023-07-09T08:14:37;100489.47;;;26.79;47.46
15267;BME280;7735;49.144;8.668;2023-07-09T08:17:05;100488.41;;;26.82;47.44
15267;BME280;7735;49.144;8.668;2023-07-09T08:19:42;100489.28;;;27.08;46.84
15267;BME280;7735;49.144;8.668;2023-07-09T08:22:09;100484.06;;;27.43;46.19
15267;BME280;7735;49.144;8.668;2023-07-09T08:24:38;100483.16;;;27.55;45.99
15267;BME280;7735;49.144;8.668;2023-07-09T08:27:11;100486.25;;;27.62;45.86
15267;BME280;7735;49.144;8.668;2023-07-09T08:29:38;100487.78;;;27.66;46.03
15267;BME280;7735;49.144;8.668;2023-07-09T08:32:07;100483.03;;;27.70;45.69
15267;BME280;7735;49.144;8.668;2023-07-09T08:34:35;100482.81;;;27.73;45.43
15267;BME280;7735;49.144;8.668;2023-07-09T08:37:03;100481.84;;;27.74;45.28
15267;BME280;7735;49.144;8.668;2023-07-09T08:39:30;100490.50;;;27.77;45.01
15267;BME280;7735;49.144;8.668;2023-07-09T08:42:01;100487.47;;;27.82;44.69
15267;BME280;7735;49.144;8.668;2023-07-09T08:44:49;100486.28;;;27.86;44.27
15267;BME280;7735;49.144;8.668;2023-07-09T08:47:25;100482.66;;;27.87;44.49
15267;BME280;7735;49.144;8.668;2023-07-09T08:49:57;100483.50;;;27.87;44.43
15267;BME280;7735;49.144;8.668;2023-07-09T08:52:28;100490.56;;;27.88;44.65
15267;BME280;7735;49.144;8.668;2023-07-09T08:55:00;100482.53;;;27.88;44.09
15267;BME280;7735;49.144;8.668;2023-07-09T08:57:37;100491.28;;;27.90;44.11
15267;BME280;7735;49.144;8.668;2023-07-09T09:00:13;100487.44;;;27.94;44.37
15267;BME280;7735;49.144;8.668;2023-07-09T09:02:49;100488.16;;;27.97;44.25
15267;BME280;7735;49.144;8.668;2023-07-09T09:05:19;100484.50;;;27.98;44.06
15267;BME280;7735;49.144;8.668;2023-07-09T09:07:51;100484.19;;;28.02;43.61
15267;BME280;7735;49.144;8.668;2023-07-09T09:10:23;100487.88;;;28.12;42.92
15267;BME280;7735;49.144;8.668;2023-07-09T09:13:05;100480.97;;;28.21;42.67
15267;BME280;7735;49.144;8.668;2023-07-09T09:15:32;100483.28;;;28.26;42.54
15267;BME280;7735;49.144;8.668;2023-07-09T09:18:20;100478.59;;;28.29;42.69
15267;BME280;7735;49.144;8.668;2023-07-09T09:20:53;100483.09;;;28.29;42.61
15267;BME280;7735;49.144;8.668;2023-07-09T09:23:22;100477.63;;;28.30;42.94
15267;BME280;7735;49.144;8.668;2023-07-09T09:25:56;100478.34;;;28.32;42.50
15267;BME280;7735;49.144;8.668;2023-07-09T09:28:27;100479.09;;;28.34;42.75
15267;BME280;7735;49.144;8.668;2023-07-09T09:30:53;100477.66;;;28.41;42.19
15267;BME280;7735;49.144;8.668;2023-07-09T09:33:37;100479.50;;;28.52;42.17
15267;BME280;7735;49.144;8.668;2023-07-09T09:36:28;100476.09;;;28.61;41.90
15267;BME280;7735;49.144;8.668;2023-07-09T09:38:55;100480.25;;;28.65;41.99
15267;BME280;7735;49.144;8.668;2023-07-09T09:41:23;100478.91;;;28.71;41.70
15267;BME280;7735;49.144;8.668;2023-07-09T09:43:53;100485.75;;;28.75;41.63
15267;BME280;7735;49.144;8.668;2023-07-09T09:46:25;100481.97;;;28.77;41.50
15267;BME280;7735;49.144;8.668;2023-07-09T09:48:54;100476.25;;;28.82;40.89
15267;BME280;7735;49.144;8.668;2023-07-09T09:51:23;100470.53;;;28.87;40.87
15267;BME280;7735;49.144;8.668;2023-07-09T09:53:51;100468.13;;;28.95;40.75
15267;BME280;7735;49.144;8.668;2023-07-09T09:56:23;100471.44;;;28.98;40.54
15267;BME280;7735;49.144;8.668;2023-07-09T09:58:53;100472.41;;;29.09;39.49
15267;BME280;7735;49.144;8.668;2023-07-09T10:01:25;100468.00;;;29.19;39.17
15267;BME280;7735;49.144;8.668;2023-07-09T10:03:56;100460.19;;;29.27;39.22
15267;BME280;7735;49.144;8.668;2023-07-09T10:06:33;100459.81;;;29.31;38.98
15267;BME280;7735;49.144;8.668;2023-07-09T10:09:04;100455.53;;;29.40;38.22
15267;BME280;7735;49.144;8.668;2023-07-09T10:11:42;100456.00;;;29.56;37.63
15267;BME280;7735;49.144;8.668;2023-07-09T10:14:22;100446.00;;;29.58;37.81
15267;BME280;7735;49.144;8.668;2023-07-09T10:16:57;100444.06;;;29.60;37.43
15267;BME280;7735;49.144;8.668;2023-07-09T10:19:32;100434.63;;;29.66;37.28
15267;BME280;7735;49.144;8.668;2023-07-09T10:22:22;100431.69;;;29.69;36.70
15267;BME280;7735;49.144;8.668;2023-07-09T10:24:58;100438.38;;;29.75;36.46
15267;BME280;7735;49.144;8.668;2023-07-09T10:27:32;100427.34;;;29.89;36.61
15267;BME280;7735;49.144;8.668;2023-07-09T10:30:28;100428.22;;;30.52;35.54
15267;BME280;7735;49.144;8.668;2023-07-09T10:33:07;100433.09;;;30.58;35.32
15267;BME280;7735;49.144;8.668;2023-07-09T10:35:38;100434.47;;;30.53;35.53
15267;BME280;7735;49.144;8.668;2023-07-09T10:38:22;100430.00;;;30.42;35.85
15267;BME280;7735;49.144;8.668;2023-07-09T10:40:55;100421.75;;;30.34;35.88
15267;BME280;7735;49.144;8.668;2023-07-09T10:43:29;100418.34;;;30.32;35.59
15267;BME280;7735;49.144;8.668;2023-07-09T10:46:01;100420.31;;;30.30;36.04
15267;BME280;7735;49.144;8.668;2023-07-09T10:48:36;100418.16;;;30.24;36.11
15267;BME280;7735;49.144;8.668;2023-07-09T10:53:39;100416.84;;;30.18;36.31
15267;BME280;7735;49.144;8.668;2023-07-09T10:56:11;100407.66;;;30.21;36.71
15267;BME280;7735;49.144;8.668;2023-07-09T10:58:43;100406.28;;;30.26;36.01
15267;BME280;7735;49.144;8.668;2023-07-09T11:01:14;100405.44;;;30.26;35.92
15267;BME280;7735;49.144;8.668;2023-07-09T11:03:44;100394.19;;;30.32;35.72
15267;BME280;7735;49.144;8.668;2023-07-09T11:06:19;100387.16;;;30.40;35.21
15267;BME280;7735;49.144;8.668;2023-07-09T11:08:49;100394.66;;;30.67;34.89
15267;BME280;7735;49.144;8.668;2023-07-09T11:11:25;100384.81;;;30.78;34.69
15267;BME280;7735;49.144;8.668;2023-07-09T11:13:58;100397.53;;;30.76;35.16
15267;BME280;7735;49.144;8.668;2023-07-09T11:16:35;100396.09;;;30.71;35.47
15267;BME280;7735;49.144;8.668;2023-07-09T11:19:13;100395.88;;;30.63;34.89
15267;BME280;7735;49.144;8.668;2023-07-09T11:21:45;100393.31;;;30.62;34.58
15267;BME280;7735;49.144;8.668;2023-07-09T11:24:32;100393.69;;;30.68;33.81
15267;BME280;7735;49.144;8.668;2023-07-09T11:27:00;100397.53;;;30.76;33.15
15267;BME280;7735;49.144;8.668;2023-07-09T11:29:27;100393.56;;;30.80;32.63
15267;BME280;7735;49.144;8.668;2023-07-09T11:32:07;100387.91;;;30.83;33.01
15267;BME280;7735;49.144;8.668;2023-07-09T11:34:44;100388.50;;;30.86;32.90
15267;BME280;7735;49.144;8.668;2023-07-09T11:37:13;100381.28;;;30.87;33.01
15267;BME280;7735;49.144;8.668;2023-07-09T11:39:45;100385.41;;;30.91;32.76
15267;BME280;7735;49.144;8.668;2023-07-09T11:42:30;100371.69;;;30.94;33.06
15267;BME280;7735;49.144;8.668;2023-07-09T11:45:02;100369.72;;;30.96;33.15
15267;BME280;7735;49.144;8.668;2023-07-09T11:47:37;100375.25;;;30.94;33.02
15267;BME280;7735;49.144;8.668;2023-07-09T11:50:15;100371.88;;;31.02;31.75
15267;BME280;7735;49.144;8.668;2023-07-09T11:52:55;100369.03;;;31.13;31.19
15267;BME280;7735;49.144;8.668;2023-07-09T11:55:27;100373.94;;;31.48;30.01
15267;BME280;7735;49.144;8.668;2023-07-09T11:57:55;100375.34;;;31.62;30.21
15267;BME280;7735;49.144;8.668;2023-07-09T12:00:22;100367.28;;;31.62;29.64
15267;BME280;7735;49.144;8.668;2023-07-09T12:02:51;100372.81;;;31.61;29.54
15267;BME280;7735;49.144;8.668;2023-07-09T12:05:21;100365.72;;;31.60;28.97
15267;BME280;7735;49.144;8.668;2023-07-09T12:07:48;100357.78;;;31.58;29.18
15267;BME280;7735;49.144;8.668;2023-07-09T12:10:20;100352.41;;;31.58;28.89
15267;BME280;7735;49.144;8.668;2023-07-09T12:12:48;100357.50;;;31.61;28.92
15267;BME280;7735;49.144;8.668;2023-07-09T12:15:18;100350.16;;;31.63;28.59
15267;BME280;7735;49.144;8.668;2023-07-09T12:17:57;100345.31;;;31.67;28.58
15267;BME280;7735;49.144;8.668;2023-07-09T12:20:25;100341.31;;;31.71;28.47
15267;BME280;7735;49.144;8.668;2023-07-09T12:22:53;100332.56;;;31.78;28.08
15267;BME280;7735;49.144;8.668;2023-07-09T12:25:23;100337.25;;;31.86;28.01
15267;BME280;7735;49.144;8.668;2023-07-09T12:27:51;100332.53;;;31.98;27.88
15267;BME280;7735;49.144;8.668;2023-07-09T12:30:18;100330.53;;;32.09;27.38
15267;BME280;7735;49.144;8.668;2023-07-09T12:32:46;100328.81;;;32.18;27.32
15267;BME280;7735;49.144;8.668;2023-07-09T12:35:16;100314.34;;;32.19;27.24
15267;BME280;7735;49.144;8.668;2023-07-09T12:37:45;100322.44;;;32.19;27.26
15267;BME280;7735;49.144;8.668;2023-07-09T12:40:14;100317.19;;;32.18;27.30
15267;BME280;7735;49.144;8.668;2023-07-09T12:42:43;100308.63;;;32.22;27.29
15267;BME280;7735;49.144;8.668;2023-07-09T12:45:15;100308.06;;;32.28;27.32
15267;BME280;7735;49.144;8.668;2023-07-09T12:47:42;100306.06;;;32.40;27.10
15267;BME280;7735;49.144;8.668;2023-07-09T12:50:31;100307.69;;;32.51;26.92
15267;BME280;7735;49.144;8.668;2023-07-09T12:53:03;100292.81;;;32.47;27.22
15267;BME280;7735;49.144;8.668;2023-07-09T12:55:38;100299.47;;;32.52;27.02
15267;BME280;7735;49.144;8.668;2023-07-09T12:58:08;100294.63;;;32.56;26.96
15267;BME280;7735;49.144;8.668;2023-07-09T13:00:36;100299.72;;;32.59;26.66
15267;BME280;7735;49.144;8.668;2023-07-09T13:03:03;100292.34;;;32.61;26.63
15267;BME280;7735;49.144;8.668;2023-07-09T13:05:54;100289.19;;;32.65;26.30
15267;BME280;7735;49.144;8.668;2023-07-09T13:08:22;100278.22;;;32.67;26.33
15267;BME280;7735;49.144;8.668;2023-07-09T13:10:49;100276.94;;;32.71;26.42
15267;BME280;7735;49.144;8.668;2023-07-09T13:13:19;100277.47;;;32.75;26.68
15267;BME280;7735;49.144;8.668;2023-07-09T13:15:49;100272.66;;;32.78;26.29
15267;BME280;7735;49.144;8.668;2023-07-09T13:18:16;100264.66;;;32.86;26.32
15267;BME280;7735;49.144;8.668;2023-07-09T13:20:45;100269.16;;;32.95;25.84
15267;BME280;7735;49.144;8.668;2023-07-09T13:23:15;100263.97;;;33.02;25.84
15267;BME280;7735;49.144;8.668;2023-07-09T13:25:42;100262.84;;;33.05;25.59